ED1ZAY
43.29.47N 005.56.54W
IN73AL aprs.fi
zuletzt gehoert:
2022-08-15T22:32:14Z
zuerst gehoert:
2020-02-10T15:05:02Z

APRS Llanera [IN73AL], 2 Stunde(n), ED1ZAY [00:48:21, 0s].
ED1ZAY 43.29.47N 005.56.54WIN73AL 0.476km 320°NW22:32:14ZRD625 438.3000/430.7000 CC1
EA1AHA 43.32.72N 005.54.38WIN73BN 6.902km 22°NNE22:32:58ZWind 225°/004kn, Böen bis 006kn, Temp 20.00c, Regen 0.0mm, letzte 24h 0.0mm, seit 0h 0.0mm, Baro 1010.1h, Hum: 75%(3EA1AHA-13)
LEGM 43.26.15N 005.49.84WIN73CK 10.465km 124°SE22:30:03ZHelipuerto de La Morgal (123.500MHz): LEAS 152130Z 21005KT 170V250 9999 FEW046 20/16 Q1010 NOSIG=
LEMR 43.25.83N 005.49.60WIN73CK 11.066km 125°SE22:30:03ZAerodromo de la Morgal (123.500MHz): LEAS 152130Z 21005KT 170V250 9999 FEW046 20/16 Q1010 NOSIG=
ED1ZAU 43.23.04N 005.52.75WIN73BJ 12.521km 157°SSE22:32:15ZRD625 438.5000/430.9000 CC1
EA1ABW 43.24.77N 005.47.77WIN73CJ 14.202km 126°SE22:30:13ZMMDVM MMDVM HS Hat 439.8250/439.8250 CC1(3EA1ABW-2)
EA1IPU 43.26.21N 005.46.62WIN73CK 14.231km 113°ESE22:31:02ZMMDVM MMDVM HS Hat 439.8000/439.8000 CC1(3EA1IPU-1)
EB1JAJ 43.21.72N 005.51.82WIN73BI 15.267km 157°SSE22:32:01ZMMDVM MMDVM HS Dual Hat 438.0250/431.0250 CC1(3EB1JAJ-2)
LEHU 43.22.63N 005.49.57WIN73CJ 15.306km 144°SE22:30:02ZHelipuerto del HUCA: LEAS 152130Z 21005KT 170V250 9999 FEW046 20/16 Q1010 NOSIG=
EA1L 43.20.37N 005.51.13WIN73BI 17.915km 157°SSE22:45:05Zea1l@ure.es V=13.4V
Wind 165°/003kn, Böen bis 008kn, Temp 17.78c, Regen 0.0mm, letzte 24h 0.0mm, seit 0h 0.0mm, Baro 1007.0h, Hum: 87%(2EA1L-13)
EB1TK 43.32.22N 005.42.32WIN73DM 19.595km 74°ENE22:40:16ZWind 177°/007kn, Böen bis 012kn, Temp 19.44c, Regen 0.0mm, letzte 24h 0.0mm, seit 0h 0.0mm, Baro 1011.2h, Hum: 83%(3EB1TK-13)
EA1HWX 43.19.28N 005.50.98WIN73BH 19.881km 159°SSE22:31:59ZDMO - UHF 439.7250/431.0000 CC11(3EA1HWX-2)
MMDVM DMO 222.3400/222.3400 CC1(2EA1HWX-10)
LEEL 43.32.98N 005.41.71WIN73DN 20.785km 71°ENE22:30:03ZHelipuerto de El Musel: LEAS 152130Z 21005KT 170V250 9999 FEW046 20/16 Q1010 NOSIG=
ED1ZAE 43.27.99N 005.40.54WIN73DL 21.344km 96°E22:44:18Z400 M. PICO SAN MARTIN (GIJON) 13.3V,20.3C(3ED1ZAE-3)
EA1FFA 43.31.53N 005.40.64WIN73DM 21.490km 79°E22:31:38ZMMDVM MMDVM HS Hat 438.8000/438.8000 CC1(3EA1FFA-1)
ED1ZAS 43.27.52N 005.40.17WIN73DL 21.950km 98°E22:32:16ZRD985 438.2250/430.6250 CC1
EA1IEJ 43.31.81N 005.40.17WIN73DM 22.213km 78°ENE22:30:27ZMMDVM DMO 222.3400/222.3400 CC1(3EA1IEJ-11)
MMDVM MMDVM HS Hat 438.8500/438.8500 CC6(2EA1IEJ-1)
EA1DZR 43.31.48N 005.40.00WIN73EM 22.313km 79°E22:32:08ZMMDVM MMDVM HS Hat 432.1000/432.1000 CC2(3EA1DZR-2)
MMDVM DVMega 431.1000/431.1000 CC1(2EA1DZR-1)
MMDVM DV ADER 434.3500/434.3500 CC1(2EA1DZR-4)
EA4ACU 43.29.56N 005.38.92WIN73EL 23.389km 89°E22:31:45ZMMDVM MMDVM HS Hat 432.7000/432.7000 CC1(3EA4ACU-1)
EB1GEM 43.30.00N 005.36.07WIN73EM 27.259km 87°E22:40:37ZWX3in1Plus2.0 U=13.3V,T=??.?C/??.?F(3EB1GEM-3)
EC1KV 43.34.01N 006.16.01WIN63UN 27.861km 288°WNW22:29:31ZALBUERNE(3EC1KV-1)
EA1FLQ 43.22.00N 005.36.35WIN73EI 30.064km 117°ESE22:30:19ZMMDVM DVMega 439.9750/439.9750 CC1
EA1IMW 43.14.36N 005.46.93WIN73CF 30.408km 155°SSE22:31:57ZGRUPO RADIO GALENA (GRG) 430.4500/430.4500 CC1(3EA1IMW-1)
EA1JBL 43.12.28N 005.47.42WIN73CE 33.689km 159°SSE22:30:20ZMMDVM DVMega 435.3000/435.3000 CC1
EB1DGC 43.12.60N 005.45.59WIN73CF 34.122km 155°SSE22:30:23ZMMDVM MMDVM HS Hat 433.4500/433.4500 CC1
EA1HWA 43.12.00N 005.47.40WIN73CE 34.206km 159°SSE22:31:23ZMMDVM MMDVM HS Hat 433.4500/433.4500 CC1
EA1HJA 43.28.10N 005.30.45WIN73FL 34.858km 93°E22:35:29ZEA1HJA@URE.ES
EA1HJA@URE.ES(2EA1HJA-2)
EC1AIJ 43.19.77N 005.33.49WIN73FH 35.432km 120°ESE22:00:50ZMMDVM MMDVM HS Hat 432.9800/432.9800 CC1
EA1RCG 43.09.45N 005.49.78WIN73CD 37.771km 166°SSE22:30:51ZGRUPO RADIO GALENA (GRG) 430.4500/430.4500 CC1(3EA1RCG-3)
LETN 43.20.05N 006.22.69WIN63TI 39.410km 244°WSW22:30:03ZAerodromo de La Curiscada (Tineo): LEAS 152130Z 21005KT 170V250 9999 FEW046 20/16 Q1010 NOSIG=
EA1JAY 43.29.33N 005.26.78WIN73GL 39.717km 90°E22:45:03Z434.525MHz Nodo TETRA DMO(3EA1JAY-4)
EA1JAY(2EA1JAY-2)
EA1FHR 43.28.72N 005.26.41WIN73GL 40.218km 91°E22:30:53ZMMDVM MMDVM HS Hat 439.1500/439.1500 CC1
EA1HWD 43.28.96N 005.26.30WIN73GL 40.369km 91°E22:30:28ZMMDVM MMDVM HS Hat 434.2500/434.2500 CC1
ED1ZAD 43.07.90N 005.38.52WIN73ED 46.302km 149°SSE22:34:36ZED1ZAD-3 APRS Digi/Igate(3ED1ZAD-3)

aprs.pl 5.0.011w DL3EL © 2006-2021 [4415755]